Issaquah, WA

2:25 PM PDT on October 25, 2014 (GMT -0700)
Snohomish County | Change Station
CLOSE
Current Station
Airport
Location: Everett,
Elevation: 604 ft
Nearby Weather Stations
Active Advisory: High Wind Warning

Elev 604 ft 47.91 °N, 122.28 °W | Updated 32 minutes ago

Overcast
Overcast
58 °F
Feels Like 58 °F
N
5
Wind Variable Wind from Variable

Today
High -- | Low -- °F
--% Chance of Precip.
Yesterday
High -- | Low -- °F
Precip. -- in
7:42 AM 6:02 PM
Waxing Crescent, 4% visible
Pressure 29.35 in
Visibility 10.0 miles
Clouds Few 3900 ft
Overcast 9000 ft
Dew Point 52 °F
Humidity 81%
Rainfall 0.05 in
Snow Depth Not available.
UV 1 out of 12
Pollen .40 out of 12
Air Quality Not available.
Flu Activity Sporadic
METAR KPAE 252053Z VRB04KT 10SM -RA FEW039 OVC090 14/11 A2935 RMK AO2 RAB15 SLP938 P0001 60001 T01440111 56037

More Conditions Fewer Conditions

Pressure 29.35 in
Visibility 10.0 miles
Clouds Few 3900 ft
Overcast 9000 ft
Dew Point 52 °F
Humidity 81%
Rainfall 0.05 in
Snow Depth Not available.
UV 1 out of 12
Pollen .40 out of 12
Air Quality Not available.
Flu Activity Sporadic
METAR KPAE 252053Z VRB04KT 10SM -RA FEW039 OVC090 14/11 A2935 RMK AO2 RAB15 SLP938 P0001 60001 T01440111 56037

More Conditions Fewer Conditions

10-Day Weather Forecast

Almanac

Astronomy

Oct. 25, 2014 Rise Set
Actual Time 7:42 AM PDT 6:02 PM PDT
Civil Twilight 7:10 AM PDT 6:34 PM PDT
Nautical Twilight 6:34 AM PDT 7:09 PM PDT
Astronomical Twilight 5:58 AM PDT 7:45 PM PDT
Moon 9:32 AM PDT 7:23 PM PDT
Length of Visible Light 11h 23m
Length of Day
10h 20m
Tomorrow will be 3m 12s shorter.
Waxing Crescent, 4% of the Moon is Illuminated
Today
Waxing Crescent
Oct 30
First Quarter
Nov 6
Full
Nov 14
Last Quarter
Nov 22
New

Today's Extremes

State Highs State Lows

Community

WunderPhotos

Upload Photos

1,765,001 photos uploaded!

Nearby

Snow Depth

Station Depth Elevation
Alpine Meadows 0 in 3500 ft
Mount Gardner 0 in 3000 ft
Meadows Pass 0 in 3500 ft
Dungeness 0 in 4100 ft
Fish Lake 0 in 3371 ft

Earthquake Activity

City Distance Mag. Time & Date
Birch Bay, Washington 92 miles 2.8 3:02 AM PDT
2014-10-24
Minimum magnitude displayed is 2.5.

Coastal Water Temperatures

Place Temperature
Port Townsend, WA 52.0 °F
Seattle, WA 55.0 °F
Friday Harbor, WA 51.1 °F
Tacoma, WA 54.0 °F

Nearby Weather Stations